Time;durP1;ratioP1;P1;durP2;ratioP2;P2;SDS_P1;SDS_P2;PMS_P1;PMS_P2;Temp;Humidity;BMP_temperature;BMP_pressure;BME280_temperature;BME280_humidity;BME280_pressure;Samples;Min_cycle;Max_cycle;Signal;HPM_P1;HPM_P2
2021/03/11 00:02:36;;;;;;;18.85;8.13;;;;;;;-4.34;66.17;100958.61;1735109;82;21363;-76
2021/03/11 00:05:42;;;;;;;21.12;9.28;;;;;;;-4.36;66.04;100959.16;1735268;82;21268;-75
2021/03/11 00:08:48;;;;;;;19.17;9.78;;;;;;;-4.40;65.94;100956.22;1735231;82;21840;-75
2021/03/11 00:11:54;;;;;;;26.95;10.88;;;;;;;-4.40;66.20;100957.55;1734591;82;21188;-75
2021/03/11 00:14:59;;;;;;;20.52;9.68;;;;;;;-4.38;66.18;100961.02;1735226;82;21161;-76
2021/03/11 00:18:04;;;;;;;24.90;10.63;;;;;;;-4.37;66.12;100960.97;1734210;82;21825;-75
2021/03/11 00:21:10;;;;;;;23.67;9.38;;;;;;;-4.37;66.13;100952.95;1735421;82;21157;-75
2021/03/11 00:24:15;;;;;;;24.63;10.48;;;;;;;-4.38;65.97;100955.67;1735199;82;21273;-76
2021/03/11 00:27:21;;;;;;;19.27;8.63;;;;;;;-4.38;65.88;100961.02;1734681;82;21169;-76
2021/03/11 00:30:26;;;;;;;20.57;9.55;;;;;;;-4.39;65.73;100962.82;1735190;82;21592;-75
2021/03/11 00:33:33;;;;;;;23.95;9.35;;;;;;;-4.42;65.63;100964.30;1735835;82;21826;-76
2021/03/11 00:36:39;;;;;;;22.30;10.13;;;;;;;-4.43;65.65;100969.22;1735192;82;21304;-75
2021/03/11 00:39:45;;;;;;;22.32;9.33;;;;;;;-4.42;65.59;100964.30;1735023;82;21185;-76
2021/03/11 00:42:52;;;;;;;19.55;9.65;;;;;;;-4.41;65.39;100966.03;1735283;82;21308;-75
2021/03/11 00:46:01;;;;;;;21.23;9.55;;;;;;;-4.43;65.48;100963.02;1735343;82;21276;-75
2021/03/11 00:49:06;;;;;;;32.53;11.48;;;;;;;-4.44;65.45;100954.14;1735401;82;21707;-76
2021/03/11 00:52:15;;;;;;;25.27;11.75;;;;;;;-4.47;65.30;100950.28;1735378;82;21327;-75
2021/03/11 00:55:20;;;;;;;25.05;10.03;;;;;;;-4.49;65.30;100944.59;1735472;82;21157;-76
2021/03/11 00:58:26;;;;;;;25.55;11.20;;;;;;;-4.50;65.05;100946.40;1735184;82;21204;-76
2021/03/11 01:01:33;;;;;;;29.35;10.48;;;;;;;-4.51;65.27;100941.13;1735353;82;21284;-76
2021/03/11 01:04:39;;;;;;;25.92;12.60;;;;;;;-4.50;65.08;100938.39;1735348;82;21754;-76
2021/03/11 01:07:43;;;;;;;36.70;12.63;;;;;;;-4.50;65.15;100935.72;1735256;82;21318;-76
2021/03/11 01:10:49;;;;;;;28.90;12.40;;;;;;;-4.54;65.19;100931.44;1735344;82;21161;-76
2021/03/11 01:13:54;;;;;;;34.65;12.33;;;;;;;-4.54;65.35;100932.77;1735311;82;21323;-76
2021/03/11 01:16:58;;;;;;;34.43;13.45;;;;;;;-4.59;65.31;100932.10;1735296;82;21311;-76
2021/03/11 01:20:04;;;;;;;29.05;12.98;;;;;;;-4.65;65.38;100937.23;1735291;82;21260;-76
2021/03/11 01:23:10;;;;;;;32.00;15.03;;;;;;;-4.71;65.43;100929.94;1735247;82;21189;-75
2021/03/11 01:26:16;;;;;;;30.25;12.30;;;;;;;-4.75;65.69;100926.98;1735295;82;21209;-76
2021/03/11 01:29:21;;;;;;;32.55;14.98;;;;;;;-4.77;65.84;100923.53;1735381;82;21738;-76
2021/03/11 01:32:26;;;;;;;27.98;13.15;;;;;;;-4.79;65.93;100918.73;1735300;82;21307;-76
2021/03/11 01:35:31;;;;;;;33.30;14.35;;;;;;;-4.79;66.07;100925.41;1735401;82;21296;-75
2021/03/11 01:38:37;;;;;;;29.42;14.25;;;;;;;-4.79;65.93;100930.75;1735243;82;21308;-76
2021/03/11 01:41:42;;;;;;;39.75;13.88;;;;;;;-4.79;66.03;100930.75;1735198;82;21231;-76
2021/03/11 01:44:47;;;;;;;27.00;13.15;;;;;;;-4.79;66.10;100928.08;1735191;82;21865;-76
2021/03/11 01:47:53;;;;;;;38.53;14.85;;;;;;;-4.79;66.06;100929.41;1735215;82;21857;-76
2021/03/11 01:50:59;;;;;;;33.53;14.03;;;;;;;-4.82;66.01;100924.19;1735203;82;21312;-75
2021/03/11 01:54:04;;;;;;;38.80;16.50;;;;;;;-4.80;66.02;100936.98;1735295;82;21814;-75
2021/03/11 01:57:10;;;;;;;36.28;14.20;;;;;;;-4.83;66.04;100939.81;1735271;82;21273;-75
2021/03/11 02:00:17;;;;;;;35.25;15.20;;;;;;;-4.85;66.05;100941.66;1735323;82;21272;-76
2021/03/11 02:03:22;;;;;;;36.17;15.75;;;;;;;-4.91;66.08;100942.31;1735257;82;21309;-76
2021/03/11 02:06:28;;;;;;;32.83;15.32;;;;;;;-4.89;66.33;100943.13;1735271;82;21272;-76
2021/03/11 02:09:33;;;;;;;36.03;15.32;;;;;;;-4.89;66.31;100947.14;1735270;82;21307;-76
2021/03/11 02:12:57;;;;;;;34.48;15.32;;;;;;;-4.93;66.52;100946.86;1735237;82;21311;-76
2021/03/11 02:16:36;;;;;;;36.25;15.35;;;;;;;-4.93;66.55;100948.19;1735287;82;21809;-76
2021/03/11 02:20:16;;;;;;;32.60;14.18;;;;;;;-4.91;66.50;100950.78;1735182;82;21141;-76
2021/03/11 02:23:59;;;;;;;46.60;16.30;;;;;;;-4.87;66.20;100951.53;1735071;82;21344;-76
2021/03/11 02:27:41;;;;;;;35.83;16.12;;;;;;;-4.85;66.05;100954.53;1735259;82;21340;-76
2021/03/11 02:30:47;;;;;;;33.05;14.03;;;;;;;-4.86;66.05;100949.27;1735335;82;21315;-76
2021/03/11 02:33:52;;;;;;;33.20;16.17;;;;;;;-4.87;66.10;100955.54;1735310;82;21636;-76
2021/03/11 02:37:03;;;;;;;46.28;16.60;;;;;;;-4.90;66.24;100951.18;1743821;82;21292;-76
2021/03/11 02:40:20;;;;;;;45.52;19.10;;;;;;;-4.91;66.18;100948.98;1749032;82;21148;-76
2021/03/11 02:43:25;;;;;;;42.40;18.70;;;;;;;-4.91;66.15;100951.65;1748598;82;21271;-75
2021/03/11 02:46:30;;;;;;;36.00;15.45;;;;;;;-4.90;65.98;100950.71;1748911;82;21153;-76
2021/03/11 02:49:35;;;;;;;44.58;16.80;;;;;;;-4.92;65.83;100955.72;1748980;82;21299;-76
2021/03/11 02:52:41;;;;;;;41.48;17.70;;;;;;;-4.96;65.92;100948.77;1727988;82;21326;-76
2021/03/11 02:55:49;;;;;;;45.20;17.90;;;;;;;-5.00;66.07;100952.02;1748918;82;21204;-76
2021/03/11 02:58:54;;;;;;;39.20;17.05;;;;;;;-5.03;66.21;100951.30;1748944;82;21310;-76
2021/03/11 03:02:01;;;;;;;46.15;18.60;;;;;;;-5.06;66.26;100946.94;1748977;82;21354;-76
2021/03/11 03:05:07;;;;;;;44.98;17.82;;;;;;;-5.10;66.28;100953.80;1728401;82;21276;-75
2021/03/11 03:08:14;;;;;;;46.25;19.98;;;;;;;-5.12;66.24;100955.20;1748965;82;21350;-76
2021/03/11 03:11:20;;;;;;;48.28;18.70;;;;;;;-5.20;66.40;100951.96;1748935;82;21287;-75
2021/03/11 03:14:25;;;;;;;36.25;14.93;;;;;;;-5.20;66.47;100954.63;1748924;82;21351;-76
2021/03/11 03:17:31;;;;;;;38.25;16.82;;;;;;;-5.15;66.28;100956.65;1748903;82;21318;-76
2021/03/11 03:20:35;;;;;;;41.88;18.27;;;;;;;-5.16;66.01;100961.59;1749017;82;21200;-75
2021/03/11 03:23:41;;;;;;;47.90;18.90;;;;;;;-5.19;66.10;100964.36;1748898;82;21200;-76
2021/03/11 03:26:46;;;;;;;49.88;18.30;;;;;;;-5.24;66.22;100965.87;1748928;82;21860;-76
2021/03/11 03:29:52;;;;;;;45.55;17.73;;;;;;;-5.26;66.19;100959.75;1748724;82;21196;-75
2021/03/11 03:32:57;;;;;;;48.02;19.52;;;;;;;-5.32;66.22;100959.09;1748845;82;21228;-75
2021/03/11 03:36:02;;;;;;;53.63;19.75;;;;;;;-5.40;66.40;100956.28;1749053;82;21160;-75
2021/03/11 03:39:08;;;;;;;52.88;21.75;;;;;;;-5.42;66.45;100958.13;1743289;82;21165;-76
2021/03/11 03:42:15;;;;;;;50.23;18.52;;;;;;;-5.43;66.53;100959.06;1743395;82;21308;-75
2021/03/11 03:45:23;;;;;;;44.08;18.70;;;;;;;-5.46;66.30;100960.97;1743153;82;21193;-75
2021/03/11 03:48:33;;;;;;;43.40;18.98;;;;;;;-5.49;66.43;100959.77;1764421;80;21161;-75
2021/03/11 03:51:39;;;;;;;42.23;16.82;;;;;;;-5.48;66.22;100957.03;1779902;80;21378;-76
2021/03/11 03:54:47;;;;;;;42.95;17.00;;;;;;;-5.49;66.00;100961.97;1779979;80;21801;-75
2021/03/11 03:57:58;;;;;;;44.65;16.42;;;;;;;-5.49;65.89;100963.77;1769687;80;21158;-75
2021/03/11 04:01:06;;;;;;;48.15;18.02;;;;;;;-5.49;66.03;100963.77;1749845;80;21288;-75
2021/03/11 04:04:13;;;;;;;43.90;18.73;;;;;;;-5.49;66.08;100965.97;1747658;82;21280;-75
2021/03/11 04:07:24;;;;;;;36.65;18.70;;;;;;;-5.51;66.26;100969.14;1747643;82;21878;-75
2021/03/11 04:10:29;;;;;;;42.10;17.40;;;;;;;-5.55;66.59;100971.98;1774105;80;21169;-75
2021/03/11 04:13:35;;;;;;;46.25;17.32;;;;;;;-5.56;66.67;100972.91;1779909;80;21295;-75
2021/03/11 04:16:39;;;;;;;34.75;17.12;;;;;;;-5.57;66.89;100974.71;1780020;80;21633;-75
2021/03/11 04:19:44;;;;;;;38.67;15.70;;;;;;;-5.57;66.78;100986.70;1777600;80;21134;-75
2021/03/11 04:22:49;;;;;;;45.33;17.98;;;;;;;-5.58;66.53;100985.44;1777374;80;21188;-76
2021/03/11 04:25:55;;;;;;;40.28;16.50;;;;;;;-5.62;66.93;100991.34;1773634;80;21759;-75
2021/03/11 04:28:59;;;;;;;36.35;15.80;;;;;;;-5.62;67.10;100987.34;1747643;82;21141;-75
2021/03/11 04:32:05;;;;;;;45.60;18.05;;;;;;;-5.63;67.21;100982.95;1747264;82;21177;-76
2021/03/11 04:35:11;;;;;;;43.80;17.80;;;;;;;-5.67;67.22;100983.52;1747654;82;21256;-76
2021/03/11 04:38:18;;;;;;;35.50;17.12;;;;;;;-5.63;67.30;100987.41;1746162;80;21177;-75
2021/03/11 04:41:23;;;;;;;38.92;15.48;;;;;;;-5.63;67.26;100986.95;1741216;81;21279;-75
2021/03/11 04:44:31;;;;;;;37.00;16.23;;;;;;;-5.60;67.00;100993.94;1741227;82;21283;-75
2021/03/11 04:47:36;;;;;;;43.68;17.02;;;;;;;-5.58;67.00;100999.64;1759798;81;21288;-75
2021/03/11 04:50:45;;;;;;;47.35;16.62;;;;;;;-5.55;66.88;100999.53;1771710;81;21283;-76
2021/03/11 04:53:50;;;;;;;39.10;15.38;;;;;;;-5.54;66.81;101002.59;1771006;81;21272;-75
2021/03/11 04:56:56;;;;;;;33.05;15.18;;;;;;;-5.51;66.36;100997.13;1741244;81;21732;-76
2021/03/11 05:00:04;;;;;;;41.23;14.87;;;;;;;-5.52;66.52;101006.06;1741120;82;21339;-75
2021/03/11 05:03:09;;;;;;;33.63;15.80;;;;;;;-5.55;66.14;101003.53;1741101;81;21311;-76
2021/03/11 05:06:15;;;;;;;36.10;13.90;;;;;;;-5.52;66.63;101010.53;1741708;79;21296;-76
2021/03/11 05:09:20;;;;;;;38.73;15.63;;;;;;;-5.51;66.45;101013.13;1772267;79;21862;-75
2021/03/11 05:12:26;;;;;;;36.93;15.70;;;;;;;-5.46;66.53;101015.63;1782448;79;21288;-75
2021/03/11 05:15:31;;;;;;;37.13;14.95;;;;;;;-5.44;66.35;101021.78;1771520;81;21148;-75
2021/03/11 05:18:36;;;;;;;44.50;14.78;;;;;;;-5.44;66.09;101023.11;1734249;82;21272;-76
2021/03/11 05:21:42;;;;;;;40.83;15.83;;;;;;;-5.40;65.93;101030.08;1766545;80;21797;-75
2021/03/11 05:24:47;;;;;;;29.55;14.03;;;;;;;-5.34;65.35;101016.97;1752557;81;21326;-75
2021/03/11 05:27:54;;;;;;;35.35;14.90;;;;;;;-5.26;65.47;101014.89;1768665;79;21294;-75
2021/03/11 05:30:59;;;;;;;32.30;14.60;;;;;;;-5.14;65.25;101019.73;1763816;81;21122;-75
2021/03/11 05:34:04;;;;;;;35.83;14.03;;;;;;;-5.05;64.45;101025.18;1767847;79;21269;-76
2021/03/11 05:37:10;;;;;;;29.20;15.05;;;;;;;-5.00;64.89;101025.39;1759151;80;21272;-76
2021/03/11 05:40:17;;;;;;;28.50;13.22;;;;;;;-4.95;65.20;101023.41;1767188;80;21271;-75
2021/03/11 05:43:22;;;;;;;34.10;14.98;;;;;;;-4.85;65.45;101030.59;1759176;80;21291;-76
2021/03/11 05:46:27;;;;;;;30.72;13.70;;;;;;;-4.77;64.33;101040.50;1767302;79;21263;-76
2021/03/11 05:49:34;;;;;;;28.25;13.13;;;;;;;-4.80;64.36;101037.08;1772543;79;21300;-76
2021/03/11 05:52:39;;;;;;;27.10;13.43;;;;;;;-4.79;64.12;101048.19;1724350;82;21275;-76
2021/03/11 05:55:46;;;;;;;37.38;14.35;;;;;;;-4.69;64.34;101042.88;1764562;81;21146;-76
2021/03/11 05:58:53;;;;;;;30.60;14.38;;;;;;;-4.60;63.81;101042.97;1765887;80;21172;-76
2021/03/11 06:01:58;;;;;;;39.83;13.40;;;;;;;-4.56;63.91;101042.79;1763795;79;21622;-76
2021/03/11 06:05:03;;;;;;;52.30;29.37;;;;;;;-4.47;63.87;101045.08;1761679;79;21310;-76
2021/03/11 06:08:10;;;;;;;27.70;14.07;;;;;;;-4.33;63.67;101059.17;1765004;79;21802;-76
2021/03/11 06:11:15;;;;;;;25.65;12.40;;;;;;;-4.22;63.11;101051.60;1766805;79;21287;-76
2021/03/11 06:14:21;;;;;;;24.10;11.10;;;;;;;-4.11;62.80;101055.15;1765594;79;21261;-76
2021/03/11 06:17:27;;;;;;;31.82;13.68;;;;;;;-4.00;62.24;101054.68;1762431;79;21260;-76
2021/03/11 06:20:34;;;;;;;26.30;11.35;;;;;;;-3.92;61.69;101058.77;1762653;79;21926;-77
2021/03/11 06:23:40;;;;;;;47.27;25.45;;;;;;;-3.81;61.68;101062.78;1761398;79;21200;-77
2021/03/11 06:26:45;;;;;;;28.60;12.73;;;;;;;-3.69;61.45;101064.92;1764273;79;21927;-77
2021/03/11 06:29:51;;;;;;;27.67;12.07;;;;;;;-3.55;60.99;101053.15;1760573;79;21205;-78
2021/03/11 06:33:04;;;;;;;23.65;11.55;;;;;;;-3.43;60.90;101074.48;1762957;79;21181;-79
2021/03/11 06:36:21;;;;;;;19.87;9.25;;;;;;;-3.41;59.39;101065.91;1764362;79;21712;-78
2021/03/11 06:39:38;;;;;;;33.30;17.77;;;;;;;-3.44;58.05;101064.22;1767041;79;21245;-79
2021/03/11 06:42:44;;;;;;;23.18;10.93;;;;;;;-3.44;58.32;101068.23;1772088;79;21193;-79
2021/03/11 06:45:50;;;;;;;28.50;12.90;;;;;;;-3.43;58.17;101073.14;1772020;79;21335;-80
2021/03/11 06:48:56;;;;;;;42.00;16.93;;;;;;;-3.39;58.11;101055.99;1726946;81;21786;-79
2021/03/11 06:52:20;;;;;;;30.92;15.75;;;;;;;-3.32;58.56;101067.30;1711210;81;21906;-81
2021/03/11 06:55:26;;;;;;;19.65;10.35;;;;;;;-3.30;57.40;101062.73;1732881;81;21232;-81
2021/03/11 06:58:37;;;;;;;26.45;10.38;;;;;;;-3.28;57.78;101068.91;1694769;82;21868;-76
2021/03/11 07:01:46;;;;;;;26.87;10.53;;;;;;;-3.28;57.28;101074.25;1716418;81;21206;-76
2021/03/11 07:04:52;;;;;;;25.43;10.18;;;;;;;-3.25;58.04;101082.13;1684592;82;21294;-76
2021/03/11 07:08:20;;;;;;;23.67;10.10;;;;;;;-3.24;57.26;101071.37;1713816;81;21234;-76
2021/03/11 07:11:26;;;;;;;24.40;12.20;;;;;;;-3.26;57.17;101064.34;1712907;82;21367;-77
2021/03/11 07:14:35;;;;;;;34.90;10.15;;;;;;;-3.19;58.01;101074.70;1716141;81;21676;-78
2021/03/11 07:17:40;;;;;;;24.20;11.95;;;;;;;-3.02;57.31;101075.72;1734389;81;21278;-76
2021/03/11 07:20:46;;;;;;;24.60;9.70;;;;;;;-2.98;56.71;101086.21;1705358;81;21168;-76
2021/03/11 07:23:55;;;;;;;36.45;19.12;;;;;;;-2.93;56.77;101077.50;1728726;82;21309;-75
2021/03/11 07:27:05;;;;;;;25.50;14.35;;;;;;;-2.91;55.88;101086.34;1701356;82;21558;-76
2021/03/11 07:30:11;;;;;;;35.23;14.73;;;;;;;-2.89;54.86;101091.61;1730332;81;21168;-79
2021/03/11 07:33:16;;;;;;;24.70;12.18;;;;;;;-2.91;53.76;101072.95;1712653;81;21820;-80
2021/03/11 07:36:22;;;;;;;19.50;8.60;;;;;;;-2.87;53.69;101097.31;1720922;81;22456;-79
2021/03/11 07:39:28;;;;;;;18.23;9.18;;;;;;;-2.84;54.23;101102.98;1720449;81;21367;-80
2021/03/11 07:42:33;;;;;;;35.75;14.23;;;;;;;-2.83;54.77;101092.19;1722935;81;21216;-80
2021/03/11 07:45:41;;;;;;;34.55;8.20;;;;;;;-2.79;53.96;101086.22;1726901;81;21534;-80
2021/03/11 07:48:47;;;;;;;30.80;19.15;;;;;;;-2.72;55.94;101079.65;1729499;81;21303;-80
2021/03/11 07:51:54;;;;;;;27.07;8.28;;;;;;;-2.62;54.52;101090.31;1706076;81;21216;-79
2021/03/11 07:55:00;;;;;;;19.35;7.47;;;;;;;-2.55;54.77;101080.63;1720201;81;21258;-76
2021/03/11 07:58:12;;;;;;;20.95;7.62;;;;;;;-2.49;55.03;101097.73;1727359;81;21229;-80
2021/03/11 08:01:17;;;;;;;11.88;5.80;;;;;;;-2.44;54.77;101085.89;1726247;81;21864;-81
2021/03/11 08:04:25;;;;;;;19.32;10.30;;;;;;;-2.39;54.11;101085.66;1727667;81;21196;-80
2021/03/11 08:07:36;;;;;;;37.65;27.87;;;;;;;-2.44;52.43;101091.24;1699580;82;21207;-80
2021/03/11 08:10:42;;;;;;;12.93;7.65;;;;;;;-2.49;51.41;101090.60;1735199;81;21814;-80
2021/03/11 08:13:48;;;;;;;24.10;9.98;;;;;;;-2.50;52.34;101083.48;1655792;83;21842;-81
2021/03/11 08:16:56;;;;;;;18.48;8.80;;;;;;;-2.42;50.12;101071.06;1714566;81;21799;-77
2021/03/11 08:20:02;;;;;;;61.23;40.45;;;;;;;-2.43;50.27;101093.45;1695619;82;21259;-77
2021/03/11 08:23:10;;;;;;;24.90;9.88;;;;;;;-2.46;51.04;101088.23;1702937;82;21565;-78
2021/03/11 08:26:18;;;;;;;24.00;9.15;;;;;;;-2.46;50.38;101073.02;1711688;81;21316;-77
2021/03/11 08:29:29;;;;;;;50.17;33.48;;;;;;;-2.41;51.57;101069.64;1732439;81;21544;-78
2021/03/11 08:33:00;;;;;;;18.32;10.63;;;;;;;-2.32;50.43;101083.92;1713934;82;21272;-76
2021/03/11 08:36:36;;;;;;;17.87;9.43;;;;;;;-2.34;50.97;101085.83;1693219;81;21260;-77
2021/03/11 08:39:44;;;;;;;13.53;7.87;;;;;;;-2.34;52.20;101072.91;1700193;82;21303;-76
2021/03/11 08:42:52;;;;;;;9.93;6.20;;;;;;;-2.18;52.26;101097.13;1694000;81;21455;-79
2021/03/11 08:46:01;;;;;;;13.98;6.30;;;;;;;-2.10;51.35;101089.10;1734354;82;21699;-77
2021/03/11 08:49:08;;;;;;;30.32;20.65;;;;;;;-2.02;51.42;101082.47;1716593;82;21316;-81
2021/03/11 08:52:13;;;;;;;15.18;7.40;;;;;;;-1.96;51.23;101073.66;1725224;81;21881;-82
2021/03/11 08:55:39;;;;;;;14.25;7.65;;;;;;;-1.86;52.39;101081.63;1723837;81;21289;-81
2021/03/11 08:58:44;;;;;;;26.60;12.58;;;;;;;-1.72;51.51;101072.01;1724997;81;21265;-80
2021/03/11 09:02:03;;;;;;;16.87;11.88;;;;;;;-1.70;49.72;101066.94;1701017;81;21177;-81
2021/03/11 09:05:10;;;;;;;23.87;18.05;;;;;;;-1.81;50.15;101072.88;1725787;81;21365;-81
2021/03/11 09:08:18;;;;;;;14.38;7.65;;;;;;;-1.82;51.08;101066.25;1722427;81;21304;-81
2021/03/11 09:11:29;;;;;;;13.43;7.22;;;;;;;-1.80;53.04;101065.21;1722657;81;21898;-81
2021/03/11 09:14:33;;;;;;;;;;;;;;;-1.68;52.42;101061.52;1724070;81;21185;-80
2021/03/11 09:17:41;;;;;;;13.85;6.62;;;;;;;-1.50;54.38;101052.50;1720386;81;20235;-80
2021/03/11 09:20:46;;;;;;;17.15;10.20;;;;;;;-1.28;51.57;101056.23;1723730;81;22293;-79
2021/03/11 09:23:51;;;;;;;12.60;6.85;;;;;;;-1.22;50.47;101057.70;1721076;81;21916;-79
2021/03/11 09:26:57;;;;;;;14.10;8.35;;;;;;;-1.19;49.79;101057.55;1722143;81;21201;-80
2021/03/11 09:30:03;;;;;;;19.50;6.75;;;;;;;-1.14;50.01;101064.41;1720201;81;21647;-81
2021/03/11 09:33:24;;;;;;;12.55;6.97;;;;;;;-1.24;50.41;101064.99;1721895;81;21308;-81
2021/03/11 09:36:28;;;;;;;13.78;6.87;;;;;;;-1.37;50.26;101080.40;1720947;81;21179;-80
2021/03/11 09:39:37;;;;;;;9.53;6.12;;;;;;;-1.28;51.67;101072.34;1723532;81;21968;-80
2021/03/11 09:42:47;;;;;;;11.70;6.17;;;;;;;-1.20;51.05;101068.77;1723359;81;21326;-80
2021/03/11 09:46:18;;;;;;;10.38;6.95;;;;;;;-1.23;49.22;101084.17;1707567;81;21660;-80
2021/03/11 09:49:31;;;;;;;10.45;5.67;;;;;;;-1.33;47.87;101065.88;1726087;81;21686;-83
2021/03/11 09:52:39;;;;;;;9.93;5.85;;;;;;;-1.38;46.89;101071.96;1728626;81;21358;-75
2021/03/11 09:55:45;;;;;;;12.33;7.78;;;;;;;-1.34;47.44;101070.85;1729440;81;21330;-76
2021/03/11 09:59:00;;;;;;;10.53;6.20;;;;;;;-1.29;48.46;101069.27;1729637;81;21192;-83
2021/03/11 10:02:08;;;;;;;12.68;6.20;;;;;;;-1.26;47.63;101063.74;1729287;81;21188;-82
2021/03/11 10:05:14;;;;;;;15.08;5.22;;;;;;;-1.29;49.90;101064.77;1729254;81;21299;-80
2021/03/11 10:08:38;;;;;;;11.10;5.70;;;;;;;-1.25;50.13;101060.58;1720732;81;21592;-76
2021/03/11 10:11:53;;;;;;;23.07;9.50;;;;;;;-1.24;47.73;101052.91;1698816;81;21622;-79
2021/03/11 10:15:01;;;;;;;14.83;6.75;;;;;;;-1.14;47.82;101043.41;1726616;81;21207;-77
2021/03/11 10:18:18;;;;;;;10.90;6.15;;;;;;;-1.08;47.96;101056.52;1730949;81;21310;-78
2021/03/11 10:21:23;;;;;;;11.60;5.85;;;;;;;-1.03;48.97;101047.73;1729251;81;22581;-79
2021/03/11 10:24:52;;;;;;;15.80;6.17;;;;;;;-0.86;50.45;101060.20;1691668;82;21341;-80
2021/03/11 10:27:59;;;;;;;16.87;11.12;;;;;;;-0.78;48.53;101052.12;1667361;84;21933;-78
2021/03/11 10:31:07;;;;;;;14.95;5.92;;;;;;;-0.80;48.59;101067.92;1664546;84;21216;-79
2021/03/11 10:34:15;;;;;;;12.50;6.08;;;;;;;-0.74;49.28;101055.98;1695627;82;21185;-79
2021/03/11 10:37:23;;;;;;;11.78;5.25;;;;;;;-0.65;48.04;101038.01;1664671;84;21333;-78
2021/03/11 10:40:32;;;;;;;10.03;6.08;;;;;;;-0.57;48.08;101053.20;1662169;84;21850;-79
2021/03/11 10:43:42;;;;;;;13.08;8.40;;;;;;;-0.68;46.56;101042.20;1682214;84;21223;-80
2021/03/11 10:46:50;;;;;;;17.17;7.42;;;;;;;-0.71;47.30;101031.13;1736427;81;21637;-80
2021/03/11 10:49:56;;;;;;;14.73;9.48;;;;;;;-0.66;48.35;101032.22;1738057;80;21314;-79
2021/03/11 10:53:03;;;;;;;12.07;6.25;;;;;;;-0.57;46.67;101051.84;1737296;80;21770;-79
2021/03/11 10:56:14;;;;;;;17.37;7.62;;;;;;;-0.46;48.75;101038.69;1711456;82;21291;-80
2021/03/11 10:59:20;;;;;;;10.70;6.58;;;;;;;-0.35;47.24;101013.86;1736813;80;21717;-80
2021/03/11 11:02:25;;;;;;;14.63;6.05;;;;;;;-0.32;48.84;101019.94;1717277;81;22290;-80
2021/03/11 11:05:32;;;;;;;13.93;5.95;;;;;;;-0.33;49.73;101014.62;1717822;81;21856;-80
2021/03/11 11:08:38;;;;;;;9.55;5.75;;;;;;;-0.37;49.73;101014.44;1713639;81;21260;-80
2021/03/11 11:11:44;;;;;;;11.43;6.47;;;;;;;-0.48;47.61;101020.42;1716743;81;21201;-80
2021/03/11 11:14:56;;;;;;;9.10;5.53;;;;;;;-0.60;48.24;101019.80;1713522;81;21260;-81
2021/03/11 11:18:02;;;;;;;12.45;6.00;;;;;;;-0.76;46.48;101030.53;1716382;81;21301;-79
2021/03/11 11:21:09;;;;;;;12.28;5.78;;;;;;;-0.88;47.34;101028.08;1713274;81;21213;-78
2021/03/11 11:24:14;;;;;;;17.57;5.47;;;;;;;-0.78;49.12;101017.20;1727768;81;21309;-81
2021/03/11 11:27:21;;;;;;;10.45;6.35;;;;;;;-0.66;47.51;101004.90;1727361;81;21198;-80
2021/03/11 11:30:28;;;;;;;11.18;6.03;;;;;;;-0.57;47.23;100998.97;1727232;81;21154;-80
2021/03/11 11:33:33;;;;;;;12.65;5.90;;;;;;;-0.52;46.49;101009.45;1710215;82;21283;-81
2021/03/11 11:36:39;;;;;;;12.73;6.03;;;;;;;-0.58;46.86;101000.41;1739053;80;21211;-80
2021/03/11 11:39:45;;;;;;;12.35;6.10;;;;;;;-0.59;48.67;101008.09;1738421;81;21763;-81
2021/03/11 11:42:50;;;;;;;11.12;6.83;;;;;;;-0.60;48.41;101005.02;1718191;81;21237;-80
2021/03/11 11:45:55;;;;;;;9.78;6.35;;;;;;;-0.69;47.37;101008.23;1726697;81;21173;-78
2021/03/11 11:49:04;;;;;;;15.93;7.03;;;;;;;-0.70;48.87;101002.48;1726337;81;22420;-78
2021/03/11 11:52:15;;;;;;;13.22;5.15;;;;;;;-0.64;46.88;100992.71;1709656;81;21484;-77
2021/03/11 11:55:21;;;;;;;12.18;5.25;;;;;;;-0.69;49.02;101022.53;1695812;81;21723;-77
2021/03/11 11:58:28;;;;;;;15.68;6.20;;;;;;;-0.89;48.64;100996.80;1700841;82;21648;-78
2021/03/11 12:01:34;;;;;;;13.60;6.28;;;;;;;-1.05;49.27;100991.41;1700563;82;21235;-78
2021/03/11 12:04:41;;;;;;;12.78;6.60;;;;;;;-0.98;48.17;100985.23;1707110;82;22182;-76
2021/03/11 12:07:48;;;;;;;14.18;5.92;;;;;;;-0.86;50.92;100997.95;1703769;82;21245;-76
2021/03/11 12:10:55;;;;;;;10.68;5.10;;;;;;;-0.84;47.81;100985.80;1716984;81;21651;-77
2021/03/11 12:14:00;;;;;;;14.45;9.88;;;;;;;-0.95;48.57;100981.48;1723190;82;21532;-76
2021/03/11 12:17:05;;;;;;;15.30;6.55;;;;;;;-0.97;48.27;100980.24;1722747;81;21192;-80
2021/03/11 12:20:11;;;;;;;9.98;5.72;;;;;;;-0.84;48.86;100998.75;1723268;81;21173;-81
2021/03/11 12:23:19;;;;;;;10.38;5.95;;;;;;;-0.72;48.28;100982.87;1722199;81;21612;-82
2021/03/11 12:26:29;;;;;;;14.15;5.92;;;;;;;-0.59;49.77;100981.22;1727625;81;22051;-83
2021/03/11 12:29:36;;;;;;;17.17;5.95;;;;;;;-0.61;48.50;100988.48;1726765;81;21224;-82
2021/03/11 12:32:43;;;;;;;8.90;4.87;;;;;;;-0.73;48.02;101002.16;1703613;82;21886;-81
2021/03/11 12:35:49;;;;;;;12.07;6.45;;;;;;;-0.92;46.97;100992.94;1726841;81;21671;-81
2021/03/11 12:38:56;;;;;;;10.70;6.78;;;;;;;-0.93;48.47;100984.97;1728924;81;21506;-82
2021/03/11 12:42:01;;;;;;;11.05;4.78;;;;;;;-0.79;48.41;100983.72;1725228;81;21672;-82
2021/03/11 12:45:06;;;;;;;10.28;5.20;;;;;;;-0.79;48.22;101004.72;1701432;82;21176;-82
2021/03/11 12:48:15;;;;;;;10.05;5.60;;;;;;;-0.95;48.39;101001.16;1730449;81;21589;-80
2021/03/11 12:51:22;;;;;;;22.25;6.62;;;;;;;-1.06;47.96;101000.90;1701355;81;21635;-81
2021/03/11 12:54:27;;;;;;;14.18;5.22;;;;;;;-1.00;49.76;100995.17;1712077;81;21180;-82
2021/03/11 12:57:32;;;;;;;10.15;5.55;;;;;;;-0.79;47.82;100987.27;1734527;81;21183;-80
2021/03/11 13:00:38;;;;;;;9.98;4.85;;;;;;;-0.85;48.22;101011.80;1714016;81;21170;-78
2021/03/11 13:03:43;;;;;;;11.20;5.97;;;;;;;-1.05;49.70;101012.88;1707801;82;21596;-78
2021/03/11 13:06:49;;;;;;;12.65;6.08;;;;;;;-1.15;48.08;100997.38;1713464;81;21242;-78
2021/03/11 13:09:55;;;;;;;12.82;5.95;;;;;;;-1.11;48.78;101000.29;1735680;81;21518;-78
2021/03/11 13:13:01;;;;;;;9.65;5.87;;;;;;;-1.09;49.57;100999.71;1709655;81;22221;-79
2021/03/11 13:16:08;;;;;;;12.43;5.60;;;;;;;-1.14;50.30;100999.10;1736340;81;21509;-79
2021/03/11 13:19:16;;;;;;;12.73;6.72;;;;;;;-1.11;50.34;101002.97;1711798;81;21193;-79
2021/03/11 13:22:21;;;;;;;12.80;6.40;;;;;;;-1.09;49.25;101001.05;1712878;81;21178;-79
2021/03/11 13:25:27;;;;;;;9.18;6.05;;;;;;;-1.23;47.75;100997.79;1713853;81;21675;-80
2021/03/11 13:28:31;;;;;;;10.45;5.92;;;;;;;-1.35;50.76;100993.98;1712996;81;21997;-80
2021/03/11 13:31:37;;;;;;;11.80;5.53;;;;;;;-1.36;51.07;100996.28;1712907;81;21682;-79
2021/03/11 13:34:43;;;;;;;10.93;6.47;;;;;;;-1.31;48.67;100999.57;1716550;81;21815;-79
2021/03/11 13:40:49;;;;;;;11.50;6.03;;;;;;;-1.38;48.89;100994.13;1720300;81;21297;-80
2021/03/11 13:43:55;;;;;;;11.40;6.30;;;;;;;-1.44;50.39;101001.19;1709117;82;21241;-79
2021/03/11 13:47:02;;;;;;;12.15;6.42;;;;;;;-1.48;50.66;101016.19;1718249;81;21928;-83
2021/03/11 13:50:08;;;;;;;11.08;6.90;;;;;;;-1.53;50.16;101017.78;1739035;81;21149;-79
2021/03/11 13:53:14;;;;;;;10.60;6.75;;;;;;;-1.53;50.90;101001.68;1715100;81;21339;-79
2021/03/11 13:56:21;;;;;;;11.28;7.10;;;;;;;-1.52;51.54;101010.11;1726079;81;21941;-79
2021/03/11 13:59:39;;;;;;;11.48;6.60;;;;;;;-1.64;51.96;101007.63;1723183;81;21177;-78
2021/03/11 14:02:49;;;;;;;11.20;6.20;;;;;;;-1.75;51.64;101015.83;1722924;81;21192;-79
2021/03/11 14:05:55;;;;;;;10.63;6.80;;;;;;;-1.89;51.59;101015.20;1722528;81;21284;-80
2021/03/11 14:09:01;;;;;;;16.97;7.30;;;;;;;-2.04;51.44;101017.34;1726008;81;21284;-80
2021/03/11 14:12:06;;;;;;;13.68;8.03;;;;;;;-2.16;52.33;101014.84;1706106;82;21785;-79
2021/03/11 14:15:13;;;;;;;12.63;7.00;;;;;;;-2.22;54.50;101025.84;1716552;81;21246;-80
2021/03/11 14:18:18;;;;;;;11.53;6.95;;;;;;;-2.27;53.60;101010.00;1738999;81;21204;-80
2021/03/11 14:21:24;;;;;;;14.28;6.80;;;;;;;-2.29;52.81;101019.95;1720355;81;21276;-80
2021/03/11 14:24:30;;;;;;;11.93;6.75;;;;;;;-2.30;52.82;101022.23;1736399;82;21148;-79